GLO1743 SBCT-SBBR
Flight info
| Callsign | GLO1743 |
|---|---|
| Flight time | 1h 23m |
| Altitude | 39000 |
| Route | GIKLU UZ5 VUDOT |
| Aircraft | B38M/M-SDE1FGHILORVWXY/HB1 |
Departure
| Time | 2026-05-05 16:42 |
|---|---|
| Airport | Curitiba-Afonso Pena International Airport (SBCT) |
Arrival
| Time | 2026-05-05 18:06 |
|---|---|
| Airport | Presidente Juscelino Kubitschek International Airport (SBBR) |
| Time | Latitude | Longitude | Altitude | Speed | Heading |
|---|---|---|---|---|---|
| 2026-05-05 16:24 | -25.53523 | -49.17261 | 2987 ft | 0 kts | 224° |
| 2026-05-05 16:35 | -25.53521 | -49.17258 | 2987 ft | 3 kts | 224° |
| 2026-05-05 16:36 | -25.53511 | -49.17248 | 2987 ft | 0 kts | 223° |
| 2026-05-05 16:40 | -25.53514 | -49.17251 | 2987 ft | 1 kts | 223° |
| 2026-05-05 16:40 | -25.53517 | -49.17254 | 2987 ft | 1 kts | 223° |
| 2026-05-05 16:40 | -25.53543 | -49.17248 | 2987 ft | 11 kts | 148° |
| 2026-05-05 16:40 | -25.53566 | -49.17137 | 2987 ft | 24 kts | 111° |
| 2026-05-05 16:41 | -25.53595 | -49.16959 | 2985 ft | 21 kts | 100° |
| 2026-05-05 16:41 | -25.53610 | -49.16806 | 2983 ft | 6 kts | 92° |
| 2026-05-05 16:41 | -25.53589 | -49.16775 | 2983 ft | 6 kts | 347° |
| 2026-05-05 16:41 | -25.53552 | -49.16805 | 2983 ft | 9 kts | 321° |
| 2026-05-05 16:42 | -25.53391 | -49.16973 | 2986 ft | 70 kts | 315° |
| 2026-05-05 16:42 | -25.52864 | -49.17565 | 2991 ft | 142 kts | 314° |
| 2026-05-05 16:42 | -25.52122 | -49.18488 | 3353 ft | 174 kts | 309° |
| 2026-05-05 16:42 | -25.51306 | -49.19582 | 3997 ft | 200 kts | 308° |
| 2026-05-05 16:43 | -25.50617 | -49.20932 | 4999 ft | 208 kts | 297° |
| 2026-05-05 16:43 | -25.49926 | -49.22443 | 5874 ft | 235 kts | 297° |
| 2026-05-05 16:43 | -25.49138 | -49.24091 | 6864 ft | 246 kts | 297° |
| 2026-05-05 16:43 | -25.48283 | -49.25820 | 7718 ft | 263 kts | 301° |
| 2026-05-05 16:44 | -25.46988 | -49.27283 | 8591 ft | 275 kts | 328° |
| 2026-05-05 16:44 | -25.45149 | -49.27928 | 9693 ft | 284 kts | 353° |
| 2026-05-05 16:44 | -25.43149 | -49.27627 | 10601 ft | 299 kts | 20° |
| 2026-05-05 16:44 | -25.41256 | -49.26593 | 11295 ft | 315 kts | 26° |
| 2026-05-05 16:45 | -25.39258 | -49.25487 | 12109 ft | 325 kts | 25° |
| 2026-05-05 16:45 | -25.37219 | -49.24362 | 13148 ft | 328 kts | 26° |
| 2026-05-05 16:45 | -25.35181 | -49.23239 | 14134 ft | 332 kts | 26° |
| 2026-05-05 16:45 | -25.32957 | -49.22401 | 14978 ft | 337 kts | 6° |
| 2026-05-05 16:46 | -25.30620 | -49.22444 | 15717 ft | 343 kts | 353° |
| 2026-05-05 16:46 | -25.28218 | -49.22702 | 16514 ft | 349 kts | 353° |
| 2026-05-05 16:46 | -25.25796 | -49.22971 | 17359 ft | 354 kts | 352° |
| 2026-05-05 16:46 | -25.23313 | -49.23253 | 18167 ft | 359 kts | 352° |
| 2026-05-05 16:47 | -25.20824 | -49.23540 | 18884 ft | 365 kts | 352° |
| 2026-05-05 16:47 | -25.18275 | -49.23835 | 19595 ft | 368 kts | 352° |
| 2026-05-05 16:47 | -25.15735 | -49.24129 | 20312 ft | 372 kts | 352° |
| 2026-05-05 16:47 | -25.13135 | -49.24432 | 21008 ft | 376 kts | 352° |
| 2026-05-05 16:48 | -25.10532 | -49.24735 | 21696 ft | 379 kts | 352° |
| 2026-05-05 16:48 | -25.07885 | -49.25043 | 22383 ft | 383 kts | 352° |
| 2026-05-05 16:48 | -25.05236 | -49.25351 | 23065 ft | 386 kts | 351° |
| 2026-05-05 16:48 | -25.02543 | -49.25665 | 23754 ft | 390 kts | 351° |
| 2026-05-05 16:49 | -24.99842 | -49.25979 | 24297 ft | 394 kts | 351° |
| 2026-05-05 16:49 | -24.97095 | -49.26299 | 24828 ft | 397 kts | 351° |
| 2026-05-05 16:49 | -24.95266 | -49.26511 | 25183 ft | 400 kts | 351° |
| 2026-05-05 16:49 | -24.91558 | -49.26941 | 25863 ft | 405 kts | 351° |
| 2026-05-05 16:50 | -24.88758 | -49.27267 | 26375 ft | 409 kts | 351° |
| 2026-05-05 16:50 | -24.86866 | -49.27486 | 26722 ft | 412 kts | 351° |
| 2026-05-05 16:50 | -24.83043 | -49.27930 | 27393 ft | 417 kts | 350° |
| 2026-05-05 16:50 | -24.81082 | -49.28157 | 27727 ft | 419 kts | 350° |
| 2026-05-05 16:51 | -24.77237 | -49.28603 | 28396 ft | 424 kts | 350° |
| 2026-05-05 16:51 | -24.75278 | -49.28830 | 28714 ft | 426 kts | 350° |
| 2026-05-05 16:51 | -24.72281 | -49.29177 | 29199 ft | 430 kts | 350° |
| 2026-05-05 16:51 | -24.69319 | -49.29520 | 29678 ft | 433 kts | 350° |
| 2026-05-05 16:52 | -24.66290 | -49.29870 | 30135 ft | 437 kts | 350° |
| 2026-05-05 16:52 | -24.63285 | -49.30218 | 30564 ft | 440 kts | 350° |
| 2026-05-05 16:52 | -24.60206 | -49.30573 | 30969 ft | 443 kts | 349° |
| 2026-05-05 16:52 | -24.57152 | -49.30926 | 31356 ft | 446 kts | 349° |
| 2026-05-05 16:53 | -24.54040 | -49.31286 | 31755 ft | 449 kts | 349° |
| 2026-05-05 16:53 | -24.50941 | -49.31643 | 32136 ft | 452 kts | 349° |
| 2026-05-05 16:53 | -24.47785 | -49.32007 | 32522 ft | 455 kts | 349° |
| 2026-05-05 16:53 | -24.44615 | -49.32373 | 32897 ft | 459 kts | 349° |
| 2026-05-05 16:54 | -24.41452 | -49.32737 | 33247 ft | 462 kts | 349° |
| 2026-05-05 16:54 | -24.38223 | -49.33109 | 33636 ft | 465 kts | 349° |
| 2026-05-05 16:54 | -24.35018 | -49.33478 | 33995 ft | 468 kts | 349° |
| 2026-05-05 16:54 | -24.31785 | -49.33850 | 34327 ft | 471 kts | 349° |
| 2026-05-05 16:55 | -24.28516 | -49.34226 | 34615 ft | 474 kts | 349° |
| 2026-05-05 16:55 | -24.25215 | -49.34605 | 34904 ft | 477 kts | 348° |
| 2026-05-05 16:55 | -24.21926 | -49.34983 | 35171 ft | 480 kts | 348° |
| 2026-05-05 16:55 | -24.18572 | -49.35368 | 35488 ft | 482 kts | 348° |
| 2026-05-05 16:56 | -24.15257 | -49.35749 | 35827 ft | 483 kts | 348° |
| 2026-05-05 16:56 | -24.11886 | -49.36136 | 36175 ft | 484 kts | 348° |
| 2026-05-05 16:56 | -24.08563 | -49.36516 | 36516 ft | 485 kts | 348° |
| 2026-05-05 16:56 | -24.05211 | -49.36901 | 36846 ft | 486 kts | 348° |
| 2026-05-05 16:57 | -24.01817 | -49.37289 | 37183 ft | 487 kts | 348° |
| 2026-05-05 16:57 | -23.98472 | -49.37672 | 37487 ft | 487 kts | 347° |
| 2026-05-05 16:57 | -23.95073 | -49.38061 | 37758 ft | 489 kts | 347° |
| 2026-05-05 16:57 | -23.91711 | -49.38445 | 38041 ft | 490 kts | 347° |
| 2026-05-05 16:58 | -23.88295 | -49.38836 | 38333 ft | 491 kts | 347° |
| 2026-05-05 16:58 | -23.84934 | -49.39220 | 38629 ft | 492 kts | 347° |
| 2026-05-05 16:58 | -23.81504 | -49.39611 | 38908 ft | 492 kts | 347° |
| 2026-05-05 16:58 | -23.78119 | -49.39997 | 39109 ft | 493 kts | 347° |
| 2026-05-05 16:59 | -23.71299 | -49.40774 | 39151 ft | 493 kts | 347° |
| 2026-05-05 16:59 | -23.64480 | -49.41551 | 39153 ft | 492 kts | 347° |
| 2026-05-05 17:00 | -23.57682 | -49.42324 | 39145 ft | 492 kts | 347° |
| 2026-05-05 17:00 | -23.50848 | -49.43101 | 39140 ft | 493 kts | 347° |
| 2026-05-05 17:01 | -23.43997 | -49.43816 | 39139 ft | 500 kts | 353° |
| 2026-05-05 17:01 | -23.40531 | -49.43414 | 39140 ft | 509 kts | 7° |
| 2026-05-05 17:01 | -23.37036 | -49.42595 | 39142 ft | 512 kts | 7° |
| 2026-05-05 17:02 | -23.30089 | -49.40962 | 39159 ft | 512 kts | 7° |
| 2026-05-05 17:02 | -23.23126 | -49.39269 | 39137 ft | 513 kts | 8° |
| 2026-05-05 17:03 | -23.16188 | -49.37371 | 39133 ft | 515 kts | 9° |
| 2026-05-05 17:03 | -23.09262 | -49.35472 | 39153 ft | 515 kts | 9° |
| 2026-05-05 17:04 | -23.02279 | -49.33563 | 39147 ft | 516 kts | 9° |
| 2026-05-05 17:04 | -22.95341 | -49.31668 | 39145 ft | 518 kts | 9° |
| 2026-05-05 17:05 | -22.88325 | -49.29745 | 39152 ft | 519 kts | 9° |
| 2026-05-05 17:05 | -22.81352 | -49.27826 | 39143 ft | 517 kts | 9° |
| 2026-05-05 17:06 | -22.74374 | -49.25909 | 39128 ft | 517 kts | 9° |
| 2026-05-05 17:06 | -22.67391 | -49.23992 | 39145 ft | 519 kts | 9° |
| 2026-05-05 17:07 | -22.60400 | -49.22075 | 39138 ft | 519 kts | 9° |
| 2026-05-05 17:07 | -22.53421 | -49.20112 | 39135 ft | 519 kts | 10° |
| 2026-05-05 17:08 | -22.46448 | -49.18134 | 39167 ft | 519 kts | 10° |
| 2026-05-05 17:08 | -22.39441 | -49.16187 | 39204 ft | 518 kts | 8° |
| 2026-05-05 17:09 | -22.32411 | -49.14453 | 39213 ft | 519 kts | 8° |
| 2026-05-05 17:09 | -22.25381 | -49.12695 | 39202 ft | 519 kts | 8° |
| 2026-05-05 17:10 | -22.18394 | -49.10949 | 39185 ft | 518 kts | 8° |
| 2026-05-05 17:10 | -22.11328 | -49.09185 | 39165 ft | 518 kts | 8° |
| 2026-05-05 17:11 | -22.04310 | -49.07453 | 39145 ft | 518 kts | 8° |
| 2026-05-05 17:11 | -21.97300 | -49.05723 | 39120 ft | 517 kts | 8° |
| 2026-05-05 17:12 | -21.90279 | -49.03993 | 39107 ft | 520 kts | 8° |
| 2026-05-05 17:12 | -21.83220 | -49.02255 | 39115 ft | 523 kts | 8° |
| 2026-05-05 17:13 | -21.76127 | -49.00511 | 39110 ft | 523 kts | 8° |
| 2026-05-05 17:13 | -21.69034 | -48.98768 | 39110 ft | 523 kts | 8° |
| 2026-05-05 17:14 | -21.61902 | -48.97439 | 39122 ft | 520 kts | 2° |
| 2026-05-05 17:14 | -21.54718 | -48.96294 | 39109 ft | 521 kts | 4° |
| 2026-05-05 17:15 | -21.47560 | -48.95118 | 39106 ft | 522 kts | 4° |
| 2026-05-05 17:15 | -21.40400 | -48.93941 | 39102 ft | 522 kts | 4° |
| 2026-05-05 17:16 | -21.33248 | -48.92766 | 39107 ft | 522 kts | 4° |
| 2026-05-05 17:16 | -21.26033 | -48.91582 | 39112 ft | 522 kts | 4° |
| 2026-05-05 17:17 | -21.18860 | -48.90422 | 39108 ft | 521 kts | 3° |
| 2026-05-05 17:17 | -21.11696 | -48.89278 | 39100 ft | 522 kts | 3° |
| 2026-05-05 17:18 | -21.04517 | -48.88131 | 39113 ft | 522 kts | 3° |
| 2026-05-05 17:18 | -20.97321 | -48.86983 | 39111 ft | 522 kts | 3° |
| 2026-05-05 17:19 | -20.90182 | -48.85845 | 39112 ft | 522 kts | 3° |
| 2026-05-05 17:19 | -20.83005 | -48.84703 | 39109 ft | 522 kts | 3° |
| 2026-05-05 17:20 | -20.75786 | -48.83554 | 39111 ft | 522 kts | 3° |
| 2026-05-05 17:20 | -20.68603 | -48.82434 | 39105 ft | 520 kts | 0° |
| 2026-05-05 17:21 | -20.61437 | -48.81711 | 39093 ft | 519 kts | 0° |
| 2026-05-05 17:22 | -20.50658 | -48.80555 | 39106 ft | 520 kts | 0° |
| 2026-05-05 17:22 | -20.43495 | -48.79784 | 39114 ft | 520 kts | 0° |
| 2026-05-05 17:23 | -20.36298 | -48.79011 | 39111 ft | 519 kts | 0° |
| 2026-05-05 17:23 | -20.29116 | -48.78241 | 39109 ft | 519 kts | 0° |
| 2026-05-05 17:24 | -20.21919 | -48.77487 | 39104 ft | 519 kts | 0° |
| 2026-05-05 17:24 | -20.14747 | -48.76736 | 39103 ft | 519 kts | 360° |
| 2026-05-05 17:25 | -20.07563 | -48.75984 | 39096 ft | 519 kts | 0° |
| 2026-05-05 17:25 | -20.00386 | -48.75233 | 39102 ft | 518 kts | 0° |
| 2026-05-05 17:26 | -19.93227 | -48.74485 | 39102 ft | 518 kts | 0° |
| 2026-05-05 17:26 | -19.86026 | -48.73734 | 39107 ft | 518 kts | 360° |
| 2026-05-05 17:27 | -19.78875 | -48.72988 | 39103 ft | 517 kts | 360° |
| 2026-05-05 17:27 | -19.71718 | -48.72242 | 39104 ft | 517 kts | 360° |
| 2026-05-05 17:28 | -19.64585 | -48.71500 | 39104 ft | 517 kts | 360° |
| 2026-05-05 17:28 | -19.57438 | -48.70757 | 39102 ft | 516 kts | 360° |
| 2026-05-05 17:29 | -19.50254 | -48.70010 | 39106 ft | 516 kts | 360° |
| 2026-05-05 17:29 | -19.43103 | -48.69267 | 39120 ft | 517 kts | 360° |
| 2026-05-05 17:30 | -19.35965 | -48.68527 | 39102 ft | 517 kts | 360° |
| 2026-05-05 17:30 | -19.28809 | -48.67785 | 39106 ft | 516 kts | 360° |
| 2026-05-05 17:31 | -19.21677 | -48.67047 | 39107 ft | 515 kts | 360° |
| 2026-05-05 17:31 | -19.14554 | -48.66359 | 39106 ft | 514 kts | 359° |
| 2026-05-05 17:32 | -19.07450 | -48.65714 | 39104 ft | 514 kts | 359° |
| 2026-05-05 17:32 | -19.00340 | -48.65063 | 39108 ft | 513 kts | 359° |
| 2026-05-05 17:33 | -18.93231 | -48.64415 | 39110 ft | 514 kts | 359° |
| 2026-05-05 17:33 | -18.86116 | -48.63765 | 39118 ft | 514 kts | 359° |
| 2026-05-05 17:34 | -18.80156 | -48.63222 | 39113 ft | 514 kts | 359° |
| 2026-05-05 17:34 | -18.73047 | -48.62574 | 39112 ft | 513 kts | 359° |
| 2026-05-05 17:35 | -18.65949 | -48.61930 | 39115 ft | 512 kts | 359° |
| 2026-05-05 17:35 | -18.58834 | -48.61286 | 39116 ft | 512 kts | 359° |
| 2026-05-05 17:36 | -18.51744 | -48.60645 | 39096 ft | 512 kts | 359° |
| 2026-05-05 17:36 | -18.44674 | -48.60007 | 39105 ft | 510 kts | 359° |
| 2026-05-05 17:37 | -18.37595 | -48.59368 | 39111 ft | 510 kts | 359° |
| 2026-05-05 17:37 | -18.30545 | -48.58619 | 39088 ft | 515 kts | 8° |
| 2026-05-05 17:38 | -18.23638 | -48.56409 | 39073 ft | 519 kts | 13° |
| 2026-05-05 17:38 | -18.16758 | -48.54155 | 39103 ft | 518 kts | 14° |
| 2026-05-05 17:39 | -18.09923 | -48.51893 | 39092 ft | 517 kts | 13° |
| 2026-05-05 17:39 | -18.03021 | -48.49610 | 39097 ft | 517 kts | 13° |
| 2026-05-05 17:40 | -17.96157 | -48.47340 | 39087 ft | 517 kts | 14° |
| 2026-05-05 17:40 | -17.89336 | -48.45087 | 39099 ft | 516 kts | 14° |
| 2026-05-05 17:41 | -17.82525 | -48.42839 | 38819 ft | 509 kts | 14° |
| 2026-05-05 17:41 | -17.79158 | -48.41729 | 38010 ft | 512 kts | 14° |
| 2026-05-05 17:41 | -17.75728 | -48.40598 | 37218 ft | 514 kts | 14° |
| 2026-05-05 17:41 | -17.72313 | -48.39472 | 36700 ft | 510 kts | 14° |
| 2026-05-05 17:42 | -17.68980 | -48.38374 | 36268 ft | 505 kts | 14° |
| 2026-05-05 17:42 | -17.65609 | -48.37264 | 35766 ft | 502 kts | 14° |
| 2026-05-05 17:42 | -17.62302 | -48.36175 | 35202 ft | 500 kts | 14° |
| 2026-05-05 17:42 | -17.58991 | -48.35086 | 34633 ft | 500 kts | 14° |
| 2026-05-05 17:43 | -17.55659 | -48.33990 | 34081 ft | 499 kts | 15° |
| 2026-05-05 17:43 | -17.52364 | -48.32907 | 33485 ft | 497 kts | 15° |
| 2026-05-05 17:43 | -17.49083 | -48.31828 | 32933 ft | 494 kts | 15° |
| 2026-05-05 17:43 | -17.45784 | -48.30744 | 32423 ft | 490 kts | 15° |
| 2026-05-05 17:44 | -17.42571 | -48.29689 | 31921 ft | 487 kts | 15° |
| 2026-05-05 17:44 | -17.39337 | -48.28627 | 31396 ft | 483 kts | 15° |
| 2026-05-05 17:44 | -17.36147 | -48.27580 | 30891 ft | 480 kts | 15° |
| 2026-05-05 17:44 | -17.32992 | -48.26545 | 30400 ft | 476 kts | 15° |
| 2026-05-05 17:45 | -17.29816 | -48.25503 | 29846 ft | 473 kts | 15° |
| 2026-05-05 17:45 | -17.26717 | -48.24488 | 29301 ft | 469 kts | 15° |
| 2026-05-05 17:45 | -17.23636 | -48.23478 | 28812 ft | 463 kts | 15° |
| 2026-05-05 17:45 | -17.20561 | -48.22470 | 28378 ft | 457 kts | 15° |
| 2026-05-05 17:46 | -17.17522 | -48.21475 | 27916 ft | 452 kts | 15° |
| 2026-05-05 17:46 | -17.14568 | -48.20508 | 27464 ft | 448 kts | 15° |
| 2026-05-05 17:46 | -17.11598 | -48.19536 | 27006 ft | 443 kts | 16° |
| 2026-05-05 17:46 | -17.08653 | -48.18573 | 26569 ft | 439 kts | 16° |
| 2026-05-05 17:47 | -17.05771 | -48.17630 | 26138 ft | 435 kts | 16° |
| 2026-05-05 17:47 | -17.02877 | -48.16684 | 25707 ft | 431 kts | 16° |
| 2026-05-05 17:47 | -17.00042 | -48.15757 | 25286 ft | 427 kts | 16° |
| 2026-05-05 17:47 | -16.97203 | -48.14830 | 24863 ft | 424 kts | 16° |
| 2026-05-05 17:48 | -16.94430 | -48.13924 | 24453 ft | 420 kts | 16° |
| 2026-05-05 17:48 | -16.91666 | -48.13021 | 24041 ft | 418 kts | 17° |
| 2026-05-05 17:48 | -16.88871 | -48.12109 | 23618 ft | 415 kts | 17° |
| 2026-05-05 17:48 | -16.86145 | -48.11219 | 23137 ft | 412 kts | 17° |
| 2026-05-05 17:49 | -16.83405 | -48.10325 | 22709 ft | 408 kts | 17° |
| 2026-05-05 17:49 | -16.80725 | -48.09451 | 22312 ft | 404 kts | 17° |
| 2026-05-05 17:49 | -16.77994 | -48.08735 | 21714 ft | 403 kts | 5° |
| 2026-05-05 17:49 | -16.75220 | -48.08910 | 21048 ft | 404 kts | 346° |
| 2026-05-05 17:50 | -16.72496 | -48.09569 | 20499 ft | 404 kts | 346° |
| 2026-05-05 17:50 | -16.69713 | -48.10196 | 19873 ft | 406 kts | 346° |
| 2026-05-05 17:50 | -16.66977 | -48.10814 | 19240 ft | 409 kts | 346° |
| 2026-05-05 17:50 | -16.64171 | -48.11448 | 18582 ft | 412 kts | 346° |
| 2026-05-05 17:51 | -16.61390 | -48.12076 | 17879 ft | 414 kts | 347° |
| 2026-05-05 17:51 | -16.58559 | -48.12716 | 17181 ft | 414 kts | 347° |
| 2026-05-05 17:51 | -16.55726 | -48.13357 | 16516 ft | 414 kts | 347° |
| 2026-05-05 17:51 | -16.52945 | -48.13985 | 15867 ft | 413 kts | 347° |
| 2026-05-05 17:52 | -16.50117 | -48.14624 | 15211 ft | 413 kts | 347° |
| 2026-05-05 17:52 | -16.47329 | -48.15254 | 14573 ft | 412 kts | 348° |
| 2026-05-05 17:52 | -16.44522 | -48.15888 | 13926 ft | 410 kts | 348° |
| 2026-05-05 17:52 | -16.41750 | -48.16514 | 13205 ft | 410 kts | 349° |
| 2026-05-05 17:53 | -16.38959 | -48.17144 | 12546 ft | 407 kts | 349° |
| 2026-05-05 17:53 | -16.36204 | -48.17767 | 11896 ft | 404 kts | 349° |
| 2026-05-05 17:53 | -16.33489 | -48.18379 | 11281 ft | 401 kts | 349° |
| 2026-05-05 17:53 | -16.30764 | -48.18993 | 10646 ft | 398 kts | 350° |
| 2026-05-05 17:54 | -16.28054 | -48.19604 | 10062 ft | 394 kts | 350° |
| 2026-05-05 17:54 | -16.25410 | -48.20197 | 9634 ft | 386 kts | 350° |
| 2026-05-05 17:54 | -16.22839 | -48.20774 | 9334 ft | 374 kts | 350° |
| 2026-05-05 17:54 | -16.20325 | -48.21338 | 9059 ft | 359 kts | 350° |
| 2026-05-05 17:55 | -16.17951 | -48.21871 | 8775 ft | 336 kts | 350° |
| 2026-05-05 17:55 | -16.15754 | -48.22325 | 8505 ft | 314 kts | 357° |
| 2026-05-05 17:55 | -16.13666 | -48.22080 | 8197 ft | 292 kts | 19° |
| 2026-05-05 17:55 | -16.11755 | -48.21550 | 7977 ft | 275 kts | 17° |
| 2026-05-05 17:56 | -16.09962 | -48.21087 | 7771 ft | 262 kts | 17° |
| 2026-05-05 17:56 | -16.08230 | -48.20642 | 7541 ft | 250 kts | 16° |
| 2026-05-05 17:56 | -16.06572 | -48.20218 | 7331 ft | 241 kts | 17° |
| 2026-05-05 17:56 | -16.04953 | -48.19802 | 7107 ft | 239 kts | 17° |
| 2026-05-05 17:57 | -16.03350 | -48.19390 | 6820 ft | 240 kts | 17° |
| 2026-05-05 17:57 | -16.01724 | -48.18973 | 6560 ft | 241 kts | 17° |
| 2026-05-05 17:57 | -16.00085 | -48.18553 | 6270 ft | 242 kts | 17° |
| 2026-05-05 17:57 | -15.98419 | -48.18320 | 6025 ft | 243 kts | 0° |
| 2026-05-05 17:58 | -15.96753 | -48.18447 | 5801 ft | 240 kts | 359° |
| 2026-05-05 17:58 | -15.95101 | -48.18564 | 5639 ft | 233 kts | 0° |
| 2026-05-05 17:58 | -15.93599 | -48.18281 | 5479 ft | 216 kts | 33° |
| 2026-05-05 17:58 | -15.92651 | -48.17227 | 5421 ft | 183 kts | 62° |
| 2026-05-05 17:59 | -15.92040 | -48.16201 | 5376 ft | 154 kts | 60° |
| 2026-05-05 17:59 | -15.91506 | -48.15313 | 5361 ft | 140 kts | 62° |
| 2026-05-05 17:59 | -15.91011 | -48.14455 | 5310 ft | 139 kts | 63° |
| 2026-05-05 17:59 | -15.90510 | -48.13581 | 5258 ft | 139 kts | 62° |
| 2026-05-05 18:00 | -15.90017 | -48.12732 | 5177 ft | 138 kts | 63° |
| 2026-05-05 18:00 | -15.89519 | -48.11870 | 5055 ft | 139 kts | 64° |
| 2026-05-05 18:00 | -15.89198 | -48.10949 | 5029 ft | 137 kts | 84° |
| 2026-05-05 18:00 | -15.89116 | -48.09956 | 5119 ft | 137 kts | 88° |
| 2026-05-05 18:01 | -15.89050 | -48.08973 | 5113 ft | 138 kts | 88° |
| 2026-05-05 18:01 | -15.88974 | -48.07962 | 5117 ft | 140 kts | 87° |
| 2026-05-05 18:01 | -15.88902 | -48.06967 | 5124 ft | 137 kts | 88° |
| 2026-05-05 18:01 | -15.88857 | -48.06304 | 5054 ft | 138 kts | 87° |
| 2026-05-05 18:02 | -15.88801 | -48.05429 | 5077 ft | 139 kts | 86° |
| 2026-05-05 18:02 | -15.88737 | -48.04431 | 5149 ft | 137 kts | 85° |
| 2026-05-05 18:02 | -15.88670 | -48.03443 | 5118 ft | 137 kts | 85° |
| 2026-05-05 18:02 | -15.88605 | -48.02455 | 5038 ft | 140 kts | 86° |
| 2026-05-05 18:03 | -15.88544 | -48.01450 | 4932 ft | 137 kts | 86° |
| 2026-05-05 18:03 | -15.88481 | -48.00471 | 4772 ft | 135 kts | 86° |
| 2026-05-05 18:03 | -15.88420 | -47.99511 | 4617 ft | 136 kts | 86° |
| 2026-05-05 18:03 | -15.88356 | -47.98517 | 4418 ft | 139 kts | 86° |
| 2026-05-05 18:04 | -15.88292 | -47.97526 | 4280 ft | 140 kts | 87° |
| 2026-05-05 18:04 | -15.88226 | -47.96501 | 4076 ft | 138 kts | 88° |
| 2026-05-05 18:04 | -15.88164 | -47.95552 | 3869 ft | 131 kts | 89° |
| 2026-05-05 18:04 | -15.88092 | -47.94592 | 3627 ft | 132 kts | 89° |
| 2026-05-05 18:05 | -15.88041 | -47.93657 | 3490 ft | 124 kts | 89° |
| 2026-05-05 18:05 | -15.88002 | -47.92940 | 3478 ft | 64 kts | 86° |
| 2026-05-05 18:05 | -15.87977 | -47.92577 | 3477 ft | 50 kts | 86° |
| 2026-05-05 18:05 | -15.87956 | -47.92210 | 3479 ft | 52 kts | 88° |
| 2026-05-05 18:06 | -15.87934 | -47.91967 | 3475 ft | 25 kts | 80° |
| 2026-05-05 18:06 | -15.87902 | -47.91852 | 3475 ft | 26 kts | 66° |
| 2026-05-05 18:06 | -15.87775 | -47.91635 | 3472 ft | 12 kts | 57° |
| 2026-05-05 18:06 | -15.87709 | -47.91565 | 3472 ft | 15 kts | 29° |
| 2026-05-05 18:07 | -15.87601 | -47.91557 | 3471 ft | 17 kts | 354° |
| 2026-05-05 18:07 | -15.87473 | -47.91568 | 3471 ft | 20 kts | 355° |
| 2026-05-05 18:07 | -15.87326 | -47.91579 | 3471 ft | 22 kts | 356° |
| 2026-05-05 18:07 | -15.87172 | -47.91588 | 3472 ft | 21 kts | 356° |
| 2026-05-05 18:08 | -15.87060 | -47.91618 | 3472 ft | 13 kts | 298° |
| 2026-05-05 18:08 | -15.87061 | -47.91718 | 3473 ft | 15 kts | 264° |
| 2026-05-05 18:08 | -15.87083 | -47.91810 | 3472 ft | 11 kts | 217° |
| 2026-05-05 18:08 | -15.87121 | -47.91816 | 3473 ft | 2 kts | 174° |
| 2026-05-05 18:09 | -15.87124 | -47.91816 | 3473 ft | 0 kts | 174° |